Time;durP1;ratioP1;P1;durP2;ratioP2;P2;SDS_P1;SDS_P2;PMS_P1;PMS_P2;Temp;Humidity;BMP_temperature;BMP_pressure;BME280_temperature;BME280_humidity;BME280_pressure;Samples;Min_cycle;Max_cycle;Signal;HPM_P1;HPM_P2
2022/07/18 00:01:51;;;;;;;7.38;3.20;;;;;;;19.92;54.58;102458.47;5024599;28;20489;-57
2022/07/18 00:04:17;;;;;;;5.20;2.92;;;;;;;19.94;54.83;102448.03;5025144;28;20034;-56
2022/07/18 00:06:42;;;;;;;4.70;3.05;;;;;;;19.85;55.41;102454.00;5025788;28;20036;-59
2022/07/18 00:09:08;;;;;;;6.13;3.22;;;;;;;19.90;55.11;102447.13;5021979;28;20030;-54
2022/07/18 00:11:33;;;;;;;6.45;3.17;;;;;;;19.91;54.24;102445.38;5024619;28;20057;-58
2022/07/18 00:13:58;;;;;;;6.78;3.10;;;;;;;19.85;54.64;102438.34;5020894;28;20037;-57
2022/07/18 00:16:24;;;;;;;7.00;3.20;;;;;;;19.74;55.03;102440.78;5022667;28;20112;-53
2022/07/18 00:18:49;;;;;;;5.15;2.78;;;;;;;19.72;55.02;102434.69;5024470;28;20056;-59
2022/07/18 00:21:15;;;;;;;5.47;2.63;;;;;;;19.63;56.04;102434.53;5022941;28;20544;-59
2022/07/18 00:23:41;;;;;;;6.72;3.00;;;;;;;19.54;56.10;102423.91;5026610;28;20551;-59
2022/07/18 00:26:06;;;;;;;4.60;2.65;;;;;;;19.51;56.45;102426.47;5025633;28;20026;-57
2022/07/18 00:28:32;;;;;;;6.70;3.00;;;;;;;19.39;56.96;102427.13;5022252;28;20088;-57
2022/07/18 00:30:57;;;;;;;7.93;3.05;;;;;;;19.38;57.32;102424.50;5017254;28;20639;-58
2022/07/18 00:33:22;;;;;;;8.57;3.13;;;;;;;19.41;56.64;102420.22;5021363;28;20046;-56
2022/07/18 00:35:48;;;;;;;6.68;2.97;;;;;;;19.38;56.76;102421.91;5019371;28;20057;-58
2022/07/18 00:38:13;;;;;;;8.80;3.08;;;;;;;19.34;56.32;102422.69;5023704;28;20387;-56
2022/07/18 00:40:39;;;;;;;8.18;3.55;;;;;;;19.39;56.55;102418.44;5026935;28;20037;-47
2022/07/18 00:43:05;;;;;;;9.55;3.33;;;;;;;19.40;56.22;102421.06;5020501;28;20480;-54
2022/07/18 00:45:30;;;;;;;7.88;3.33;;;;;;;19.24;55.73;102416.47;5022695;28;20060;-58
2022/07/18 00:47:56;;;;;;;6.03;3.25;;;;;;;19.31;55.57;102412.22;5025293;28;20080;-59
2022/07/18 00:50:22;;;;;;;6.13;4.10;;;;;;;19.29;55.24;102412.19;5024577;28;20386;-55
2022/07/18 00:52:49;;;;;;;6.38;3.28;;;;;;;19.30;55.32;102406.13;5024747;28;20044;-57
2022/07/18 00:55:15;;;;;;;8.98;3.42;;;;;;;19.26;55.16;102407.81;5021532;28;20087;-58
2022/07/18 00:57:43;;;;;;;5.15;3.20;;;;;;;19.24;55.35;102413.84;5027913;28;20108;-60
2022/07/18 01:02:57;;;;;;;6.97;2.75;;;;;;;19.19;54.50;102408.56;5019735;28;20044;-58
2022/07/18 01:05:23;;;;;;;8.35;3.28;;;;;;;19.14;54.97;102402.38;5023208;28;20053;-60
2022/07/18 01:07:49;;;;;;;7.18;3.30;;;;;;;19.15;55.43;102401.53;5025178;28;20443;-53
2022/07/18 01:10:15;;;;;;;5.75;3.03;;;;;;;19.07;54.96;102402.25;5028326;28;20025;-59
2022/07/18 01:12:40;;;;;;;5.75;3.03;;;;;;;19.05;55.19;102398.72;5027037;28;20040;-59
2022/07/18 01:15:06;;;;;;;5.55;3.00;;;;;;;19.03;55.58;102396.09;5024697;28;20033;-60
2022/07/18 01:17:32;;;;;;;5.82;3.17;;;;;;;18.92;55.71;102392.41;5022331;28;20472;-59
2022/07/18 01:19:57;;;;;;;5.95;2.83;;;;;;;19.00;55.94;102389.13;5020696;28;20508;-59
2022/07/18 01:22:22;;;;;;;5.43;3.20;;;;;;;19.01;56.04;102390.88;5027046;28;20035;-61
2022/07/18 01:24:48;;;;;;;7.53;3.58;;;;;;;19.01;55.05;102392.59;5024015;28;20060;-59
2022/07/18 01:27:19;;;;;;;8.65;3.10;;;;;;;19.05;54.64;102394.41;5024574;28;20025;-46
2022/07/18 01:29:46;;;;;;;6.82;3.10;;;;;;;19.04;55.05;102387.41;5021335;28;20037;-57
2022/07/18 01:32:11;;;;;;;6.72;3.25;;;;;;;18.93;54.43;102399.41;5026187;28;20053;-57
2022/07/18 01:34:37;;;;;;;8.55;3.35;;;;;;;18.92;54.42;102397.63;5024776;28;20613;-50
2022/07/18 01:37:05;;;;;;;6.78;3.40;;;;;;;18.87;55.05;102394.97;5020851;28;20129;-60
2022/07/18 01:39:30;;;;;;;6.35;3.30;;;;;;;18.79;55.45;102388.72;5026644;28;20108;-55
2022/07/18 01:41:58;;;;;;;7.07;3.78;;;;;;;18.76;55.42;102386.06;5021906;28;20183;-52
2022/07/18 01:44:24;;;;;;;7.40;3.33;;;;;;;18.81;55.70;102393.94;5023797;28;20025;-57
2022/07/18 01:46:50;;;;;;;5.57;3.53;;;;;;;18.79;55.71;102391.31;5017394;28;20030;-51
2022/07/18 01:49:16;;;;;;;7.85;3.67;;;;;;;18.75;55.77;102392.13;5021033;28;20064;-59
2022/07/18 01:51:45;;;;;;;4.20;3.22;;;;;;;18.72;55.85;102389.44;5022361;28;20533;-51
2022/07/18 01:54:11;;;;;;;7.20;3.60;;;;;;;18.65;55.86;102385.81;5019123;28;20516;-59
2022/07/18 01:56:37;;;;;;;8.25;3.83;;;;;;;18.57;55.86;102389.16;5025933;28;20449;-59
2022/07/18 01:59:02;;;;;;;6.88;3.08;;;;;;;18.60;56.44;102390.06;5020816;28;20108;-60
2022/07/18 02:01:28;;;;;;;5.97;3.13;;;;;;;18.53;57.15;102388.19;5023394;28;20060;-60
2022/07/18 02:03:53;;;;;;;5.95;2.80;;;;;;;18.60;57.52;102392.66;5021627;28;20033;-56
2022/07/18 02:06:18;;;;;;;4.90;2.95;;;;;;;18.52;57.98;102389.06;5021330;28;20067;-57
2022/07/18 02:08:44;;;;;;;6.47;3.00;;;;;;;18.41;58.32;102382.75;5021477;28;20067;-55
2022/07/18 02:11:09;;;;;;;4.90;2.70;;;;;;;18.36;58.36;102377.44;5023932;28;20029;-58
2022/07/18 02:13:35;;;;;;;6.07;3.42;;;;;;;18.30;58.84;102374.72;5020500;28;20030;-59
2022/07/18 02:16:00;;;;;;;6.07;2.95;;;;;;;18.29;59.38;102374.69;5013149;28;20033;-59
2022/07/18 02:18:26;;;;;;;5.55;2.90;;;;;;;18.26;59.19;102359.91;5022478;28;20120;-60
2022/07/18 02:20:51;;;;;;;6.80;2.70;;;;;;;18.33;59.63;102371.31;5023791;28;20043;-60
2022/07/18 02:23:17;;;;;;;5.68;2.88;;;;;;;18.27;59.81;102358.16;5028853;28;20482;-60
2022/07/18 02:25:43;;;;;;;4.38;2.72;;;;;;;18.21;59.78;102356.31;5026660;28;20073;-59
2022/07/18 02:28:09;;;;;;;10.40;3.05;;;;;;;18.18;59.61;102357.09;5035233;28;20026;-52
2022/07/18 02:30:34;;;;;;;6.22;3.22;;;;;;;18.13;60.13;102363.06;5030057;28;20401;-59
2022/07/18 02:32:59;;;;;;;6.55;3.40;;;;;;;18.11;60.14;102368.25;5026781;28;20041;-55
2022/07/18 02:35:25;;;;;;;4.55;2.95;;;;;;;18.12;60.26;102369.13;5022942;28;20053;-59
2022/07/18 02:37:50;;;;;;;6.22;3.00;;;;;;;18.10;59.65;102360.41;5024517;28;20411;-59
2022/07/18 02:40:16;;;;;;;5.15;3.28;;;;;;;18.07;59.73;102362.94;5023019;28;20057;-60
2022/07/18 02:42:41;;;;;;;5.63;3.35;;;;;;;18.02;60.08;102360.25;5022878;28;20025;-56
2022/07/18 02:45:07;;;;;;;6.45;3.45;;;;;;;18.01;60.25;102355.88;5025527;28;20029;-60
2022/07/18 02:47:33;;;;;;;6.10;3.10;;;;;;;17.85;60.56;102353.81;5029812;28;20034;-59
2022/07/18 02:49:58;;;;;;;5.70;3.00;;;;;;;17.86;60.63;102356.44;5027142;28;20409;-60
2022/07/18 02:52:24;;;;;;;7.05;3.13;;;;;;;17.85;60.55;102349.47;5023711;28;20402;-60
2022/07/18 02:54:49;;;;;;;5.95;3.42;;;;;;;17.83;60.56;102358.09;5025773;28;20092;-59
2022/07/18 02:57:14;;;;;;;6.70;3.20;;;;;;;17.83;60.81;102355.47;5028498;28;20455;-56
2022/07/18 02:59:40;;;;;;;6.15;3.38;;;;;;;17.78;61.22;102358.00;5021774;28;20018;-55
2022/07/18 03:02:06;;;;;;;6.60;3.20;;;;;;;17.69;61.53;102352.56;5027779;28;20481;-60
2022/07/18 03:04:32;;;;;;;8.18;3.53;;;;;;;17.74;60.98;102356.16;5027147;28;20044;-59
2022/07/18 03:06:58;;;;;;;7.53;3.60;;;;;;;17.78;61.15;102349.31;5025666;28;20187;-60
2022/07/18 03:09:26;;;;;;;5.35;3.42;;;;;;;17.76;61.48;102353.59;5027245;28;20043;-59
2022/07/18 03:11:53;;;;;;;9.00;3.63;;;;;;;17.73;61.04;102345.75;5022203;28;20026;-56
2022/07/18 03:14:18;;;;;;;5.70;3.65;;;;;;;17.64;61.22;102339.44;5028581;28;20043;-60
2022/07/18 03:16:44;;;;;;;5.85;3.78;;;;;;;17.58;61.37;102334.09;5026013;28;20037;-53
2022/07/18 03:19:09;;;;;;;7.68;4.13;;;;;;;17.61;61.27;102338.50;5025181;28;20498;-56
2022/07/18 03:21:34;;;;;;;9.40;4.13;;;;;;;17.58;61.60;102334.09;5021511;28;20423;-59
2022/07/18 03:24:00;;;;;;;6.50;3.58;;;;;;;17.61;61.74;102338.50;5021380;28;21026;-57
2022/07/18 03:26:25;;;;;;;8.88;4.47;;;;;;;17.57;61.73;102328.88;5030346;28;20539;-59
2022/07/18 03:28:50;;;;;;;7.75;4.25;;;;;;;17.56;61.39;102324.50;5025535;28;20037;-59
2022/07/18 03:31:16;;;;;;;10.60;4.00;;;;;;;17.58;60.97;102328.88;5022560;28;20045;-59
2022/07/18 03:33:42;;;;;;;6.93;3.90;;;;;;;17.59;61.22;102328.03;5021784;28;20090;-59
2022/07/18 03:36:07;;;;;;;7.32;4.10;;;;;;;17.61;61.12;102328.97;5017503;28;20132;-51
2022/07/18 03:38:33;;;;;;;6.38;4.13;;;;;;;17.61;61.32;102328.97;5026124;28;20204;-53
2022/07/18 03:40:58;;;;;;;10.60;4.30;;;;;;;17.66;61.07;102323.88;5022453;28;20076;-58
2022/07/18 03:43:23;;;;;;;8.68;4.57;;;;;;;17.56;60.65;102325.38;5026685;28;20032;-59
2022/07/18 03:45:49;;;;;;;8.30;4.90;;;;;;;17.61;60.17;102323.78;5024682;28;20033;-57
2022/07/18 03:48:14;;;;;;;8.02;4.43;;;;;;;17.61;60.15;102325.50;5025814;28;20034;-58
2022/07/18 03:50:40;;;;;;;8.40;4.90;;;;;;;17.57;59.83;102321.94;5022364;28;20033;-59
2022/07/18 03:53:05;;;;;;;7.45;4.57;;;;;;;17.56;59.72;102319.31;5019334;28;20053;-59
2022/07/18 03:55:31;;;;;;;8.05;4.68;;;;;;;17.62;58.34;102330.72;5027336;28;20025;-59
2022/07/18 03:57:56;;;;;;;8.68;4.47;;;;;;;17.60;59.02;102322.03;5024835;28;20160;-56
2022/07/18 04:00:21;;;;;;;9.50;4.75;;;;;;;17.58;59.76;102315.88;5025831;28;20057;-54
2022/07/18 04:02:47;;;;;;;15.15;4.72;;;;;;;17.52;60.29;102318.34;5026470;28;20041;-59
2022/07/18 04:05:14;;;;;;;6.88;4.40;;;;;;;17.54;60.42;102323.59;5028599;28;20037;-56
2022/07/18 04:07:40;;;;;;;9.63;4.32;;;;;;;17.51;60.35;102319.19;5029218;28;20037;-50
2022/07/18 04:10:07;;;;;;;9.38;4.40;;;;;;;17.49;60.97;102318.28;5023454;28;20120;-56
2022/07/18 04:12:33;;;;;;;8.27;4.63;;;;;;;17.53;60.72;102320.09;5022294;28;20049;-60
2022/07/18 04:15:00;;;;;;;11.27;4.40;;;;;;;17.56;60.60;102306.31;5023485;28;20044;-60
2022/07/18 04:17:25;;;;;;;6.70;4.28;;;;;;;17.51;60.88;102310.53;5028123;28;20408;-59
2022/07/18 04:19:51;;;;;;;6.03;4.10;;;;;;;17.58;61.01;102300.28;5023449;28;20116;-58
2022/07/18 04:22:16;;;;;;;6.43;4.25;;;;;;;17.55;60.78;102305.44;5020845;28;20494;-52
2022/07/18 04:24:42;;;;;;;6.63;4.20;;;;;;;17.54;60.70;102313.22;5027429;28;20070;-59
2022/07/18 04:27:07;;;;;;;11.05;4.68;;;;;;;17.58;60.17;102302.00;5025401;28;20030;-61
2022/07/18 04:29:33;;;;;;;12.40;4.88;;;;;;;17.57;58.92;102298.53;5024203;28;20075;-59
2022/07/18 04:31:58;;;;;;;7.93;5.07;;;;;;;17.53;59.31;102295.81;5023119;28;20030;-59
2022/07/18 04:34:24;;;;;;;8.38;4.40;;;;;;;17.60;58.83;102295.13;5027643;28;20041;-47
2022/07/18 04:36:49;;;;;;;7.22;4.57;;;;;;;17.57;58.23;102293.31;5023291;28;20044;-59
2022/07/18 04:39:16;;;;;;;7.65;4.80;;;;;;;17.57;59.14;102295.06;5028004;28;20064;-57
2022/07/18 04:41:42;;;;;;;10.90;4.70;;;;;;;17.63;58.70;102288.25;5024061;28;20111;-53
2022/07/18 04:44:07;;;;;;;9.68;4.28;;;;;;;17.68;58.99;102284.03;5025947;28;20061;-59
2022/07/18 04:46:32;;;;;;;11.32;4.68;;;;;;;17.67;58.06;102292.69;5025661;28;20503;-63
2022/07/18 04:48:58;;;;;;;11.52;5.10;;;;;;;17.71;58.19;102288.41;5023223;28;20120;-51
2022/07/18 04:51:23;;;;;;;12.18;5.10;;;;;;;17.70;58.33;102299.66;5022662;28;20044;-60
2022/07/18 04:53:49;;;;;;;11.43;5.05;;;;;;;17.69;57.91;102291.00;5021348;28;20030;-50
2022/07/18 04:56:14;;;;;;;11.23;5.10;;;;;;;17.70;58.12;102292.75;5026395;28;20036;-54
2022/07/18 04:58:39;;;;;;;10.80;5.03;;;;;;;17.74;58.26;102285.94;5028543;28;20036;-57
2022/07/18 05:01:05;;;;;;;7.10;4.97;;;;;;;17.77;58.95;102283.38;5020902;28;20042;-59
2022/07/18 05:03:30;;;;;;;9.63;4.57;;;;;;;17.78;57.91;102277.34;5023333;28;20112;-54
2022/07/18 05:05:55;;;;;;;10.63;4.90;;;;;;;17.83;58.16;102287.81;5016265;28;20048;-59
2022/07/18 05:08:21;;;;;;;8.80;4.70;;;;;;;17.83;58.39;102293.91;5022163;28;20040;-61
2022/07/18 05:10:46;;;;;;;16.70;5.78;;;;;;;17.90;57.46;102295.81;5017960;28;20033;-59
2022/07/18 05:13:12;;;;;;;15.18;5.07;;;;;;;17.98;56.87;102302.91;5003828;28;20029;-59
2022/07/18 05:15:39;;;;;;;12.90;5.78;;;;;;;18.03;56.49;102296.94;5051851;28;20044;-58
2022/07/18 05:18:05;;;;;;;12.27;4.93;;;;;;;18.11;56.20;102295.34;5022878;28;20025;-58
2022/07/18 05:20:30;;;;;;;15.82;5.10;;;;;;;18.11;56.91;102295.34;5026673;28;20042;-59
2022/07/18 05:22:56;;;;;;;10.90;5.13;;;;;;;18.19;57.06;102288.56;5021142;28;20025;-59
2022/07/18 05:25:25;;;;;;;12.18;4.93;;;;;;;18.19;57.06;102288.56;5024347;28;20047;-60
2022/07/18 05:27:51;;;;;;;7.78;4.80;;;;;;;18.26;56.59;102300.00;5022503;28;20041;-57
2022/07/18 05:30:17;;;;;;;9.90;5.20;;;;;;;18.36;56.04;102295.84;5021414;28;20025;-60
2022/07/18 05:32:44;;;;;;;13.27;4.95;;;;;;;18.37;56.00;102308.00;5017037;28;20044;-59
2022/07/18 05:35:11;;;;;;;12.73;4.68;;;;;;;18.41;56.16;102295.06;5024410;28;20053;-57
2022/07/18 05:37:37;;;;;;;9.13;5.38;;;;;;;18.43;55.75;102295.97;5020454;28;20030;-60
2022/07/18 05:40:04;;;;;;;7.85;5.15;;;;;;;18.47;55.84;102299.53;5023997;28;20029;-60
2022/07/18 05:42:29;;;;;;;11.02;5.10;;;;;;;18.53;55.84;102299.63;5017126;28;20034;-53
2022/07/18 05:44:55;;;;;;;14.45;5.63;;;;;;;18.56;56.75;102298.78;5021343;28;20028;-59
2022/07/18 05:47:20;;;;;;;9.43;5.40;;;;;;;18.68;55.69;102299.03;5026536;28;20394;-57
2022/07/18 05:49:46;;;;;;;8.32;5.20;;;;;;;18.71;55.70;102305.19;5022112;28;20037;-60
2022/07/18 05:52:11;;;;;;;14.20;5.35;;;;;;;18.78;55.65;102297.50;5021979;28;20124;-59
2022/07/18 05:54:37;;;;;;;9.32;5.65;;;;;;;18.83;55.75;102298.44;5021417;28;20391;-60
2022/07/18 05:57:02;;;;;;;11.13;6.20;;;;;;;18.88;55.41;102304.63;5026104;28;20044;-58
2022/07/18 05:59:27;;;;;;;14.70;5.93;;;;;;;19.00;55.58;102302.22;5022363;28;20029;-50
2022/07/18 06:01:53;;;;;;;10.00;5.38;;;;;;;19.07;55.21;102295.38;5020139;28;20045;-54
2022/07/18 06:04:18;;;;;;;10.10;5.65;;;;;;;19.14;55.09;102297.22;5018834;28;20128;-60
2022/07/18 06:06:44;;;;;;;13.27;5.57;;;;;;;19.26;55.18;102305.22;5021562;28;20436;-51
2022/07/18 06:09:09;;;;;;;11.20;5.60;;;;;;;19.36;54.31;102301.91;5027532;28;20029;-60
2022/07/18 06:11:35;;;;;;;13.10;5.57;;;;;;;19.42;54.19;102296.78;5015626;28;20091;-61
2022/07/18 06:14:02;;;;;;;11.88;5.82;;;;;;;19.52;54.36;102292.53;5016343;28;20058;-56
2022/07/18 06:16:28;;;;;;;10.52;5.75;;;;;;;19.68;54.32;102286.72;5021637;28;20442;-59
2022/07/18 06:18:54;;;;;;;8.35;5.70;;;;;;;19.71;54.17;102291.97;5020251;28;20034;-60
2022/07/18 06:21:19;;;;;;;11.57;5.95;;;;;;;19.79;53.81;102286.88;5026746;28;20034;-60
2022/07/18 06:23:45;;;;;;;14.40;5.72;;;;;;;19.93;53.80;102289.63;5025246;28;20037;-60
2022/07/18 06:26:10;;;;;;;11.43;5.65;;;;;;;20.04;53.52;102282.81;5021351;28;20513;-54
2022/07/18 06:28:35;;;;;;;14.65;6.07;;;;;;;20.06;54.28;102281.97;5021365;28;20044;-60
2022/07/18 06:31:01;;;;;;;13.43;6.38;;;;;;;20.19;53.58;102282.97;5021648;28;20057;-60
2022/07/18 06:33:26;;;;;;;14.25;6.15;;;;;;;20.23;53.37;102276.94;5021990;28;20486;-55
2022/07/18 06:35:52;;;;;;;11.25;5.90;;;;;;;20.32;53.26;102279.66;5016071;28;20046;-59
2022/07/18 06:38:17;;;;;;;10.63;6.05;;;;;;;20.45;53.82;102270.22;5020719;28;20045;-58
2022/07/18 06:40:43;;;;;;;12.95;5.75;;;;;;;20.56;53.32;102262.47;5023945;28;20447;-59
2022/07/18 06:43:09;;;;;;;12.20;5.82;;;;;;;20.75;53.54;102263.50;5015448;28;20041;-60
2022/07/18 06:45:34;;;;;;;11.02;5.90;;;;;;;20.78;52.57;102267.03;5023628;28;20508;-59
2022/07/18 06:48:00;;;;;;;12.25;5.78;;;;;;;20.87;52.98;102263.63;5022526;28;20029;-59
2022/07/18 06:50:25;;;;;;;12.82;6.18;;;;;;;21.04;52.69;102256.75;5020942;28;20095;-54
2022/07/18 06:52:51;;;;;;;11.70;6.05;;;;;;;21.03;53.08;102259.38;5022071;28;20060;-59
2022/07/18 06:55:17;;;;;;;13.52;6.15;;;;;;;21.05;53.35;102257.63;5024009;28;20079;-59
2022/07/18 06:57:43;;;;;;;9.60;5.50;;;;;;;21.16;52.93;102253.34;5022191;28;20029;-50
2022/07/18 07:00:10;;;;;;;10.00;6.30;;;;;;;21.28;52.45;102260.41;5019352;28;20390;-50
2022/07/18 07:02:47;;;;;;;10.30;5.80;;;;;;;21.33;52.99;102254.38;5027040;28;20054;-56
2022/07/18 07:05:14;;;;;;;14.13;5.97;;;;;;;21.44;53.12;102262.28;5018120;28;20048;-57
2022/07/18 07:07:40;;;;;;;13.88;6.10;;;;;;;21.54;52.22;102260.59;5021095;28;20053;-60
2022/07/18 07:10:06;;;;;;;14.20;6.68;;;;;;;21.66;51.87;102266.75;5029602;28;20124;-59
2022/07/18 07:12:41;;;;;;;12.10;5.60;;;;;;;21.79;52.75;102265.06;5025509;28;20108;-59
2022/07/18 07:15:08;;;;;;;12.18;5.80;;;;;;;21.93;51.87;102268.59;5025646;28;20033;-59
2022/07/18 07:17:35;;;;;;;12.25;5.85;;;;;;;22.07;53.29;102267.75;5024907;28;21047;-59
2022/07/18 07:20:00;;;;;;;9.35;5.90;;;;;;;22.15;51.38;102263.47;5028012;28;20035;-57
2022/07/18 07:22:25;;;;;;;9.05;5.30;;;;;;;22.23;51.28;102269.59;5031306;28;20041;-60
2022/07/18 07:24:51;;;;;;;10.57;5.75;;;;;;;22.31;51.45;102269.59;5027077;28;20389;-58
2022/07/18 07:27:16;;;;;;;14.20;6.00;;;;;;;22.47;49.97;102271.38;5022199;28;20037;-58
2022/07/18 07:29:41;;;;;;;12.65;5.57;;;;;;;22.54;51.28;102267.00;5024573;28;20557;-59
2022/07/18 07:32:07;;;;;;;16.55;5.45;;;;;;;22.56;50.69;102270.50;5020969;28;20037;-50
2022/07/18 07:34:32;;;;;;;12.27;5.53;;;;;;;22.64;50.14;102260.91;5026229;28;20033;-56
2022/07/18 07:36:58;;;;;;;14.60;4.97;;;;;;;22.73;50.81;102258.28;5023425;28;20507;-55
2022/07/18 07:39:23;;;;;;;14.90;5.30;;;;;;;22.83;50.69;102257.41;5024140;28;20103;-59
2022/07/18 07:41:50;;;;;;;9.25;4.85;;;;;;;22.92;50.34;102262.66;5017714;28;20033;-58
2022/07/18 07:44:15;;;;;;;18.73;5.15;;;;;;;23.00;49.17;102255.69;5018009;28;20057;-59
2022/07/18 07:46:41;;;;;;;10.30;4.60;;;;;;;23.14;49.11;102260.03;5022438;28;20109;-62
2022/07/18 07:49:06;;;;;;;12.15;4.90;;;;;;;23.18;48.03;102262.66;5017771;28;20076;-60
2022/07/18 07:51:31;;;;;;;10.02;3.92;;;;;;;23.28;49.52;102258.22;5021715;28;20065;-59
2022/07/18 07:53:57;;;;;;;7.55;3.40;;;;;;;23.34;48.70;102246.84;5023787;28;20040;-56
2022/07/18 07:56:23;;;;;;;11.75;4.13;;;;;;;23.45;48.60;102239.81;5029565;28;20041;-59
2022/07/18 07:58:48;;;;;;;10.63;4.13;;;;;;;23.54;47.34;102240.66;5025534;28;20033;-57
2022/07/18 08:01:17;;;;;;;8.32;3.63;;;;;;;23.64;48.46;102232.75;5021763;28;20029;-55
2022/07/18 08:03:44;;;;;;;12.30;3.70;;;;;;;23.73;48.36;102232.75;5019879;28;20091;-59
2022/07/18 08:06:10;;;;;;;11.35;3.55;;;;;;;23.81;48.20;102223.06;5046659;28;20033;-59
2022/07/18 08:08:35;;;;;;;14.18;3.40;;;;;;;23.92;48.00;102220.38;5023684;28;20025;-59
2022/07/18 08:11:04;;;;;;;13.18;3.47;;;;;;;23.90;48.19;102222.13;5020636;28;20040;-59
2022/07/18 08:13:31;;;;;;;11.77;3.60;;;;;;;24.03;47.34;102216.81;5023616;28;20422;-54
2022/07/18 08:15:56;;;;;;;9.85;3.70;;;;;;;24.07;46.40;102213.25;5021647;28;20099;-58
2022/07/18 08:18:21;;;;;;;10.85;3.45;;;;;;;24.09;47.45;102218.53;5023210;28;20065;-60
2022/07/18 08:20:47;;;;;;;10.07;3.00;;;;;;;24.23;46.75;102221.06;5020201;28;20046;-53
2022/07/18 08:23:12;;;;;;;7.00;3.03;;;;;;;24.31;47.69;102222.72;5024679;28;20139;-59
2022/07/18 08:25:41;;;;;;;11.25;2.92;;;;;;;24.42;46.29;102225.31;5024007;28;20040;-63
2022/07/18 08:28:07;;;;;;;10.75;2.67;;;;;;;24.48;46.22;102230.53;5022724;28;20528;-58
2022/07/18 08:30:34;;;;;;;12.23;2.83;;;;;;;24.55;46.66;102240.09;5026325;28;20466;-57
2022/07/18 08:33:00;;;;;;;7.45;2.80;;;;;;;24.66;46.86;102232.13;5022093;28;20486;-59
2022/07/18 08:35:27;;;;;;;7.90;2.58;;;;;;;24.69;45.11;102241.75;5021531;28;20116;-59
2022/07/18 08:37:52;;;;;;;9.55;2.40;;;;;;;24.72;43.66;102233.84;5024421;28;20038;-54
2022/07/18 08:40:18;;;;;;;9.05;2.35;;;;;;;24.78;42.17;102233.78;5025317;28;20030;-56
2022/07/18 08:42:44;;;;;;;8.15;2.08;;;;;;;24.88;42.02;102233.69;5025839;28;20472;-56
2022/07/18 08:45:10;;;;;;;7.55;1.98;;;;;;;24.96;40.73;102230.97;5027138;28;20402;-55
2022/07/18 08:47:36;;;;;;;8.20;1.80;;;;;;;24.99;41.35;102219.53;5024634;28;20104;-59
2022/07/18 08:50:02;;;;;;;8.85;1.98;;;;;;;25.01;42.22;102218.63;5028344;28;20029;-55
2022/07/18 08:52:28;;;;;;;6.15;2.08;;;;;;;25.09;40.80;102223.84;5024855;28;20026;-55
2022/07/18 08:54:55;;;;;;;5.85;1.67;;;;;;;25.19;40.12;102227.25;5028537;28;20068;-59
2022/07/18 08:57:22;;;;;;;5.57;1.80;;;;;;;25.27;39.44;102233.31;5023187;28;20482;-60
2022/07/18 08:59:47;;;;;;;4.03;1.70;;;;;;;25.29;39.25;102227.13;5028012;28;20028;-54
2022/07/18 09:02:12;;;;;;;5.57;1.55;;;;;;;25.30;39.17;102233.25;5004479;28;20044;-61
2022/07/18 09:04:43;;;;;;;5.70;1.75;;;;;;;25.33;39.28;102231.47;5021675;28;20485;-56
2022/07/18 09:07:10;;;;;;;7.28;2.03;;;;;;;25.36;38.97;102220.00;5019534;28;20881;-59
2022/07/18 09:09:37;;;;;;;4.55;1.50;;;;;;;25.47;39.42;102220.75;5016995;28;21133;-59
2022/07/18 09:12:09;;;;;;;5.90;1.30;;;;;;;25.54;40.60;102219.81;5016951;28;20040;-57
2022/07/18 09:14:42;;;;;;;7.78;1.60;;;;;;;25.54;39.74;102218.91;5022027;28;20040;-57
2022/07/18 09:17:18;;;;;;;5.57;1.65;;;;;;;25.63;39.37;102219.69;5016132;28;20025;-58
2022/07/18 09:19:56;;;;;;;7.05;1.77;;;;;;;25.72;40.34;102225.72;5022377;28;20036;-49
2022/07/18 09:22:23;;;;;;;7.47;1.58;;;;;;;25.85;37.79;102220.31;5026586;28;20036;-55
2022/07/18 09:24:53;;;;;;;4.82;1.75;;;;;;;25.76;38.41;102215.16;5022965;28;20047;-53
2022/07/18 09:27:24;;;;;;;3.10;1.75;;;;;;;25.86;39.98;102226.44;5020286;28;20037;-57
2022/07/18 09:30:08;;;;;;;5.22;1.58;;;;;;;25.90;38.83;102229.00;5014311;28;20461;-57
2022/07/18 09:32:35;;;;;;;3.97;1.30;;;;;;;25.94;38.42;102225.44;5020910;28;20367;-59
2022/07/18 09:35:27;;;;;;;6.22;1.80;;;;;;;25.98;39.49;102231.56;5014415;28;20034;-57
2022/07/18 09:37:56;;;;;;;5.07;1.52;;;;;;;26.03;38.54;102235.00;5015937;28;20100;-58
2022/07/18 09:40:33;;;;;;;2.53;1.35;;;;;;;26.08;37.26;102229.63;5013234;28;20061;-59
2022/07/18 09:43:04;;;;;;;7.55;1.70;;;;;;;26.14;38.07;102226.91;5016396;28;20055;-59
2022/07/18 09:45:51;;;;;;;4.20;1.42;;;;;;;26.13;39.01;102226.03;5024681;28;20583;-53
2022/07/18 09:48:19;;;;;;;9.48;1.67;;;;;;;26.27;39.40;102230.22;5025336;28;20045;-58
2022/07/18 09:51:05;;;;;;;3.97;1.48;;;;;;;26.26;40.08;102220.56;5023770;28;20104;-57
2022/07/18 09:53:42;;;;;;;5.43;1.52;;;;;;;26.32;40.78;102215.19;5017951;28;20026;-57
2022/07/18 09:56:13;;;;;;;5.65;1.40;;;;;;;26.48;40.30;102218.50;5023984;28;20398;-59
2022/07/18 09:58:40;;;;;;;4.53;1.73;;;;;;;26.51;39.20;102219.31;5024842;28;20033;-49
2022/07/18 10:01:09;;;;;;;5.25;1.42;;;;;;;26.56;39.49;102222.75;5018758;28;20083;-57
2022/07/18 10:03:35;;;;;;;6.60;1.77;;;;;;;26.66;37.98;102218.19;5016074;28;20036;-57
2022/07/18 10:06:01;;;;;;;10.73;1.73;;;;;;;26.63;37.55;102221.72;5020364;28;20658;-58
2022/07/18 10:08:29;;;;;;;4.50;1.73;;;;;;;26.66;38.27;102223.47;5020475;28;20122;-52
2022/07/18 10:10:59;;;;;;;9.90;1.67;;;;;;;26.70;38.82;102218.13;5021353;28;20033;-56
2022/07/18 10:13:25;;;;;;;10.82;1.70;;;;;;;26.71;37.68;102218.97;5017146;28;20025;-57
2022/07/18 10:15:51;;;;;;;7.18;1.60;;;;;;;26.82;38.79;102213.53;5018739;28;20096;-57
2022/07/18 10:18:20;;;;;;;5.20;1.63;;;;;;;26.83;39.87;102213.47;5020151;28;20032;-57
2022/07/18 10:20:54;;;;;;;8.65;1.95;;;;;;;26.91;38.77;102213.34;5016125;28;20025;-58
2022/07/18 10:23:21;;;;;;;8.32;1.65;;;;;;;27.00;38.50;102214.03;5020430;28;20156;-56
2022/07/18 10:26:19;;;;;;;7.72;1.52;;;;;;;27.05;39.06;102218.34;5022647;28;20083;-57
2022/07/18 10:28:56;;;;;;;11.43;1.83;;;;;;;27.13;38.29;102212.06;5016363;28;20037;-57
2022/07/18 10:31:24;;;;;;;9.57;1.60;;;;;;;27.23;38.81;102213.59;5017506;28;20033;-56
2022/07/18 10:33:50;;;;;;;6.65;1.70;;;;;;;27.21;37.94;102218.06;5018789;28;20108;-58
2022/07/18 10:36:20;;;;;;;7.15;1.55;;;;;;;27.33;37.57;102214.28;5016660;28;20136;-60
2022/07/18 10:39:17;;;;;;;7.22;1.92;;;;;;;27.38;38.46;102208.94;5020948;28;20478;-59
2022/07/18 10:41:45;;;;;;;8.07;1.75;;;;;;;27.45;37.96;102210.53;5014976;28;20492;-56
2022/07/18 10:44:28;;;;;;;11.82;1.75;;;;;;;27.50;37.52;102203.38;5020573;28;20383;-58
2022/07/18 10:47:03;;;;;;;4.60;1.52;;;;;;;27.54;37.87;102202.41;5024331;28;20026;-57
2022/07/18 10:49:47;;;;;;;8.05;1.63;;;;;;;27.64;38.01;102217.16;5022317;28;20041;-54
2022/07/18 10:52:32;;;;;;;7.70;2.00;;;;;;;27.65;38.96;102208.31;5028062;28;20389;-56
2022/07/18 10:57:32;;;;;;;8.55;2.10;;;;;;;27.68;37.84;102208.28;5025321;28;20029;-53
2022/07/18 11:00:12;;;;;;;7.43;1.98;;;;;;;27.70;38.81;102209.13;5031563;28;20474;-60
2022/07/18 11:02:46;;;;;;;7.07;1.90;;;;;;;27.73;38.48;102202.94;5026456;28;20022;-58
2022/07/18 11:05:27;;;;;;;7.25;1.92;;;;;;;27.78;38.68;102198.38;5030796;28;20029;-59
2022/07/18 11:08:01;;;;;;;10.23;1.70;;;;;;;27.84;38.71;102197.38;5027369;28;20036;-55
2022/07/18 11:10:53;;;;;;;9.05;1.70;;;;;;;27.92;38.73;102190.16;5021894;28;20100;-47
2022/07/18 11:13:48;;;;;;;6.28;2.10;;;;;;;27.95;37.72;102190.94;5027357;28;20021;-60
2022/07/18 11:16:18;;;;;;;6.43;1.63;;;;;;;28.07;37.49;102187.13;5026550;28;20061;-59
2022/07/18 11:18:43;;;;;;;5.43;1.75;;;;;;;28.06;37.89;102191.56;5027259;28;20025;-50
2022/07/18 11:21:26;;;;;;;5.68;1.50;;;;;;;28.14;38.42;102188.72;5021390;28;20579;-60
2022/07/18 11:24:06;;;;;;;3.80;1.50;;;;;;;28.23;38.50;102187.63;5017007;28;20074;-54
2022/07/18 11:26:34;;;;;;;7.88;1.98;;;;;;;28.20;37.80;102185.94;5031441;28;20030;-59
2022/07/18 11:29:02;;;;;;;6.32;1.80;;;;;;;28.21;36.64;102182.41;5028061;28;20363;-59